sensor_id;sensor_type;location;lat;lon;timestamp;P1;durP1;ratioP1;P2;durP2;ratioP2
59408;SDS011;45213;32.654;-115.458;2022-07-23T00:02:02;4.72;;;1.60;;
59408;SDS011;45213;32.654;-115.458;2022-07-23T00:04:29;6.82;;;1.70;;
59408;SDS011;45213;32.654;-115.458;2022-07-23T00:06:58;5.93;;;1.70;;
59408;SDS011;45213;32.654;-115.458;2022-07-23T00:09:25;2.97;;;1.40;;
59408;SDS011;45213;32.654;-115.458;2022-07-23T00:11:54;2.10;;;1.42;;
59408;SDS011;45213;32.654;-115.458;2022-07-23T00:14:21;4.22;;;1.52;;
59408;SDS011;45213;32.654;-115.458;2022-07-23T00:16:47;4.55;;;1.58;;
59408;SDS011;45213;32.654;-115.458;2022-07-23T00:19:14;4.97;;;1.30;;
59408;SDS011;45213;32.654;-115.458;2022-07-23T00:21:40;5.97;;;1.48;;
59408;SDS011;45213;32.654;-115.458;2022-07-23T00:24:07;4.10;;;1.38;;
59408;SDS011;45213;32.654;-115.458;2022-07-23T00:26:34;4.57;;;1.52;;
59408;SDS011;45213;32.654;-115.458;2022-07-23T00:29:01;5.45;;;1.70;;
59408;SDS011;45213;32.654;-115.458;2022-07-23T00:31:28;8.77;;;1.52;;
59408;SDS011;45213;32.654;-115.458;2022-07-23T00:33:54;5.70;;;1.88;;
59408;SDS011;45213;32.654;-115.458;2022-07-23T00:36:27;5.32;;;1.67;;
59408;SDS011;45213;32.654;-115.458;2022-07-23T00:38:54;6.65;;;1.70;;
59408;SDS011;45213;32.654;-115.458;2022-07-23T00:41:21;5.80;;;1.42;;
59408;SDS011;45213;32.654;-115.458;2022-07-23T00:43:47;14.95;;;2.45;;
59408;SDS011;45213;32.654;-115.458;2022-07-23T00:46:18;5.80;;;1.50;;
59408;SDS011;45213;32.654;-115.458;2022-07-23T00:48:49;5.55;;;1.50;;
59408;SDS011;45213;32.654;-115.458;2022-07-23T00:51:15;6.07;;;1.65;;
59408;SDS011;45213;32.654;-115.458;2022-07-23T00:53:44;4.65;;;1.67;;
59408;SDS011;45213;32.654;-115.458;2022-07-23T00:56:11;2.72;;;1.67;;
59408;SDS011;45213;32.654;-115.458;2022-07-23T00:58:38;8.23;;;2.08;;
59408;SDS011;45213;32.654;-115.458;2022-07-23T01:01:06;5.68;;;1.65;;
59408;SDS011;45213;32.654;-115.458;2022-07-23T01:03:33;8.43;;;1.70;;
59408;SDS011;45213;32.654;-115.458;2022-07-23T01:06:00;5.70;;;1.67;;
59408;SDS011;45213;32.654;-115.458;2022-07-23T01:08:27;6.18;;;1.60;;
59408;SDS011;45213;32.654;-115.458;2022-07-23T01:10:55;4.38;;;1.13;;
59408;SDS011;45213;32.654;-115.458;2022-07-23T01:13:22;4.43;;;1.33;;
59408;SDS011;45213;32.654;-115.458;2022-07-23T01:15:49;5.57;;;1.70;;
59408;SDS011;45213;32.654;-115.458;2022-07-23T01:18:16;4.80;;;1.95;;
59408;SDS011;45213;32.654;-115.458;2022-07-23T01:20:45;4.88;;;1.55;;
59408;SDS011;45213;32.654;-115.458;2022-07-23T01:23:12;7.25;;;1.60;;
59408;SDS011;45213;32.654;-115.458;2022-07-23T01:25:48;9.80;;;1.65;;
59408;SDS011;45213;32.654;-115.458;2022-07-23T01:28:18;5.80;;;1.30;;
59408;SDS011;45213;32.654;-115.458;2022-07-23T01:30:49;3.47;;;1.80;;
59408;SDS011;45213;32.654;-115.458;2022-07-23T01:33:19;4.22;;;1.55;;
59408;SDS011;45213;32.654;-115.458;2022-07-23T01:38:16;7.83;;;2.33;;
59408;SDS011;45213;32.654;-115.458;2022-07-23T01:40:43;8.93;;;2.10;;
59408;SDS011;45213;32.654;-115.458;2022-07-23T01:43:10;7.28;;;1.80;;
59408;SDS011;45213;32.654;-115.458;2022-07-23T01:45:37;7.25;;;1.98;;
59408;SDS011;45213;32.654;-115.458;2022-07-23T01:48:03;2.90;;;1.50;;
59408;SDS011;45213;32.654;-115.458;2022-07-23T01:50:31;6.45;;;1.52;;
59408;SDS011;45213;32.654;-115.458;2022-07-23T01:53:16;5.35;;;1.70;;
59408;SDS011;45213;32.654;-115.458;2022-07-23T01:55:43;7.40;;;1.75;;
59408;SDS011;45213;32.654;-115.458;2022-07-23T01:58:10;5.03;;;1.90;;
59408;SDS011;45213;32.654;-115.458;2022-07-23T02:00:37;5.13;;;1.85;;
59408;SDS011;45213;32.654;-115.458;2022-07-23T02:03:04;6.82;;;1.30;;
59408;SDS011;45213;32.654;-115.458;2022-07-23T02:05:31;8.25;;;1.27;;
59408;SDS011;45213;32.654;-115.458;2022-07-23T02:07:59;3.88;;;1.83;;
59408;SDS011;45213;32.654;-115.458;2022-07-23T02:10:26;7.10;;;1.60;;
59408;SDS011;45213;32.654;-115.458;2022-07-23T02:12:53;2.78;;;1.27;;
59408;SDS011;45213;32.654;-115.458;2022-07-23T02:15:23;4.38;;;1.50;;
59408;SDS011;45213;32.654;-115.458;2022-07-23T02:17:50;4.75;;;1.30;;
59408;SDS011;45213;32.654;-115.458;2022-07-23T02:20:17;4.90;;;1.52;;
59408;SDS011;45213;32.654;-115.458;2022-07-23T02:22:44;6.43;;;1.52;;
59408;SDS011;45213;32.654;-115.458;2022-07-23T02:25:11;5.15;;;1.42;;
59408;SDS011;45213;32.654;-115.458;2022-07-23T02:27:39;7.50;;;1.38;;
59408;SDS011;45213;32.654;-115.458;2022-07-23T02:30:06;6.05;;;1.25;;
59408;SDS011;45213;32.654;-115.458;2022-07-23T02:35:03;4.22;;;1.48;;
59408;SDS011;45213;32.654;-115.458;2022-07-23T02:37:33;7.93;;;1.80;;
59408;SDS011;45213;32.654;-115.458;2022-07-23T02:40:00;6.55;;;1.50;;
59408;SDS011;45213;32.654;-115.458;2022-07-23T02:42:30;5.93;;;2.00;;
59408;SDS011;45213;32.654;-115.458;2022-07-23T02:44:57;7.13;;;1.67;;
59408;SDS011;45213;32.654;-115.458;2022-07-23T02:47:23;7.65;;;1.70;;
59408;SDS011;45213;32.654;-115.458;2022-07-23T02:49:50;10.73;;;2.03;;
59408;SDS011;45213;32.654;-115.458;2022-07-23T02:52:17;5.45;;;1.33;;
59408;SDS011;45213;32.654;-115.458;2022-07-23T02:54:44;4.30;;;1.33;;
59408;SDS011;45213;32.654;-115.458;2022-07-23T02:57:15;4.85;;;1.60;;
59408;SDS011;45213;32.654;-115.458;2022-07-23T02:59:42;6.55;;;1.67;;
59408;SDS011;45213;32.654;-115.458;2022-07-23T03:02:09;10.35;;;1.52;;
59408;SDS011;45213;32.654;-115.458;2022-07-23T03:04:40;4.18;;;1.23;;
59408;SDS011;45213;32.654;-115.458;2022-07-23T03:07:10;5.55;;;1.52;;
59408;SDS011;45213;32.654;-115.458;2022-07-23T03:09:37;6.70;;;1.88;;
59408;SDS011;45213;32.654;-115.458;2022-07-23T03:12:03;5.55;;;1.40;;
59408;SDS011;45213;32.654;-115.458;2022-07-23T03:14:30;10.88;;;1.85;;
59408;SDS011;45213;32.654;-115.458;2022-07-23T03:16:57;7.60;;;1.45;;
59408;SDS011;45213;32.654;-115.458;2022-07-23T03:19:25;6.45;;;1.55;;
59408;SDS011;45213;32.654;-115.458;2022-07-23T03:21:52;7.07;;;1.55;;
59408;SDS011;45213;32.654;-115.458;2022-07-23T03:24:18;5.93;;;1.70;;
59408;SDS011;45213;32.654;-115.458;2022-07-23T03:26:45;9.80;;;1.90;;
59408;SDS011;45213;32.654;-115.458;2022-07-23T03:29:12;6.57;;;1.50;;
59408;SDS011;45213;32.654;-115.458;2022-07-23T03:31:38;9.80;;;2.40;;
59408;SDS011;45213;32.654;-115.458;2022-07-23T03:34:07;15.50;;;2.13;;
59408;SDS011;45213;32.654;-115.458;2022-07-23T03:36:33;10.98;;;2.30;;
59408;SDS011;45213;32.654;-115.458;2022-07-23T03:39:00;7.88;;;1.63;;
59408;SDS011;45213;32.654;-115.458;2022-07-23T03:41:26;9.10;;;1.73;;
59408;SDS011;45213;32.654;-115.458;2022-07-23T03:43:53;6.20;;;1.70;;
59408;SDS011;45213;32.654;-115.458;2022-07-23T03:46:20;6.88;;;1.30;;
59408;SDS011;45213;32.654;-115.458;2022-07-23T03:48:46;11.60;;;1.92;;
59408;SDS011;45213;32.654;-115.458;2022-07-23T03:51:15;6.25;;;1.27;;
59408;SDS011;45213;32.654;-115.458;2022-07-23T03:54:02;6.20;;;1.60;;
59408;SDS011;45213;32.654;-115.458;2022-07-23T03:56:28;5.32;;;1.73;;
59408;SDS011;45213;32.654;-115.458;2022-07-23T03:58:55;2.38;;;1.45;;
59408;SDS011;45213;32.654;-115.458;2022-07-23T04:01:23;7.40;;;1.65;;
59408;SDS011;45213;32.654;-115.458;2022-07-23T04:03:49;3.67;;;1.80;;
59408;SDS011;45213;32.654;-115.458;2022-07-23T04:06:17;5.63;;;2.13;;
59408;SDS011;45213;32.654;-115.458;2022-07-23T04:08:44;8.38;;;2.10;;
59408;SDS011;45213;32.654;-115.458;2022-07-23T04:11:10;9.07;;;2.10;;
59408;SDS011;45213;32.654;-115.458;2022-07-23T04:13:37;8.35;;;1.83;;
59408;SDS011;45213;32.654;-115.458;2022-07-23T04:16:04;6.78;;;1.70;;
59408;SDS011;45213;32.654;-115.458;2022-07-23T04:18:32;10.23;;;1.73;;
59408;SDS011;45213;32.654;-115.458;2022-07-23T04:21:10;5.72;;;1.70;;
59408;SDS011;45213;32.654;-115.458;2022-07-23T04:23:37;10.48;;;1.83;;
59408;SDS011;45213;32.654;-115.458;2022-07-23T04:26:05;6.85;;;1.90;;
59408;SDS011;45213;32.654;-115.458;2022-07-23T04:28:32;5.72;;;1.85;;
59408;SDS011;45213;32.654;-115.458;2022-07-23T04:30:58;4.40;;;1.50;;
59408;SDS011;45213;32.654;-115.458;2022-07-23T04:33:25;5.65;;;1.50;;
59408;SDS011;45213;32.654;-115.458;2022-07-23T04:35:58;5.50;;;1.80;;
59408;SDS011;45213;32.654;-115.458;2022-07-23T04:38:24;4.75;;;1.63;;
59408;SDS011;45213;32.654;-115.458;2022-07-23T04:43:21;9.70;;;1.88;;
59408;SDS011;45213;32.654;-115.458;2022-07-23T04:45:49;8.77;;;1.75;;
59408;SDS011;45213;32.654;-115.458;2022-07-23T04:48:16;7.00;;;2.03;;
59408;SDS011;45213;32.654;-115.458;2022-07-23T04:50:42;8.90;;;2.40;;
59408;SDS011;45213;32.654;-115.458;2022-07-23T04:53:21;6.10;;;1.80;;
59408;SDS011;45213;32.654;-115.458;2022-07-23T04:55:51;8.75;;;2.20;;
59408;SDS011;45213;32.654;-115.458;2022-07-23T04:58:17;5.18;;;2.60;;
59408;SDS011;45213;32.654;-115.458;2022-07-23T05:00:44;5.55;;;2.70;;
59408;SDS011;45213;32.654;-115.458;2022-07-23T05:03:10;7.00;;;3.30;;
59408;SDS011;45213;32.654;-115.458;2022-07-23T05:05:37;13.52;;;3.38;;
59408;SDS011;45213;32.654;-115.458;2022-07-23T05:08:12;8.85;;;3.53;;
59408;SDS011;45213;32.654;-115.458;2022-07-23T05:10:40;15.38;;;3.92;;
59408;SDS011;45213;32.654;-115.458;2022-07-23T05:13:07;14.20;;;3.88;;
59408;SDS011;45213;32.654;-115.458;2022-07-23T05:15:34;9.57;;;3.10;;
59408;SDS011;45213;32.654;-115.458;2022-07-23T05:18:02;12.77;;;3.90;;
59408;SDS011;45213;32.654;-115.458;2022-07-23T05:20:36;11.13;;;3.60;;
59408;SDS011;45213;32.654;-115.458;2022-07-23T05:23:04;11.95;;;3.03;;
59408;SDS011;45213;32.654;-115.458;2022-07-23T05:25:30;8.88;;;2.88;;
59408;SDS011;45213;32.654;-115.458;2022-07-23T05:27:57;12.68;;;3.08;;
59408;SDS011;45213;32.654;-115.458;2022-07-23T05:30:24;13.60;;;2.88;;
59408;SDS011;45213;32.654;-115.458;2022-07-23T05:32:59;10.77;;;2.85;;
59408;SDS011;45213;32.654;-115.458;2022-07-23T05:35:25;8.73;;;2.83;;
59408;SDS011;45213;32.654;-115.458;2022-07-23T05:38:10;7.55;;;3.30;;
59408;SDS011;45213;32.654;-115.458;2022-07-23T05:40:37;10.85;;;2.88;;
59408;SDS011;45213;32.654;-115.458;2022-07-23T05:43:04;7.30;;;2.50;;
59408;SDS011;45213;32.654;-115.458;2022-07-23T05:45:31;8.55;;;2.50;;
59408;SDS011;45213;32.654;-115.458;2022-07-23T05:47:58;6.53;;;2.10;;
59408;SDS011;45213;32.654;-115.458;2022-07-23T05:50:31;10.05;;;2.65;;
59408;SDS011;45213;32.654;-115.458;2022-07-23T05:53:19;13.20;;;2.42;;
59408;SDS011;45213;32.654;-115.458;2022-07-23T05:56:06;8.82;;;2.50;;
59408;SDS011;45213;32.654;-115.458;2022-07-23T05:58:38;7.90;;;2.25;;
59408;SDS011;45213;32.654;-115.458;2022-07-23T06:01:09;8.90;;;2.50;;
59408;SDS011;45213;32.654;-115.458;2022-07-23T06:04:03;7.68;;;2.47;;
59408;SDS011;45213;32.654;-115.458;2022-07-23T06:06:35;10.23;;;2.45;;
59408;SDS011;45213;32.654;-115.458;2022-07-23T06:09:03;7.35;;;2.45;;
59408;SDS011;45213;32.654;-115.458;2022-07-23T06:11:29;5.93;;;2.30;;
59408;SDS011;45213;32.654;-115.458;2022-07-23T06:13:57;5.70;;;2.60;;
59408;SDS011;45213;32.654;-115.458;2022-07-23T06:16:34;9.32;;;2.20;;
59408;SDS011;45213;32.654;-115.458;2022-07-23T06:19:01;9.48;;;2.28;;
59408;SDS011;45213;32.654;-115.458;2022-07-23T06:21:29;7.72;;;2.65;;
59408;SDS011;45213;32.654;-115.458;2022-07-23T06:23:57;7.35;;;2.13;;
59408;SDS011;45213;32.654;-115.458;2022-07-23T06:26:24;11.38;;;2.83;;
59408;SDS011;45213;32.654;-115.458;2022-07-23T06:28:50;6.15;;;2.72;;
59408;SDS011;45213;32.654;-115.458;2022-07-23T06:31:17;8.65;;;2.75;;
59408;SDS011;45213;32.654;-115.458;2022-07-23T06:33:44;8.50;;;2.58;;
59408;SDS011;45213;32.654;-115.458;2022-07-23T06:36:11;5.25;;;2.15;;
59408;SDS011;45213;32.654;-115.458;2022-07-23T06:38:39;10.40;;;2.05;;
59408;SDS011;45213;32.654;-115.458;2022-07-23T06:41:06;5.22;;;2.17;;
59408;SDS011;45213;32.654;-115.458;2022-07-23T06:43:33;5.07;;;1.95;;
59408;SDS011;45213;32.654;-115.458;2022-07-23T06:45:59;7.60;;;2.20;;
59408;SDS011;45213;32.654;-115.458;2022-07-23T06:48:26;7.20;;;1.92;;
59408;SDS011;45213;32.654;-115.458;2022-07-23T06:50:54;5.22;;;1.70;;
59408;SDS011;45213;32.654;-115.458;2022-07-23T06:53:23;3.30;;;1.50;;
59408;SDS011;45213;32.654;-115.458;2022-07-23T06:55:50;6.25;;;2.20;;
59408;SDS011;45213;32.654;-115.458;2022-07-23T06:58:16;7.80;;;2.10;;
59408;SDS011;45213;32.654;-115.458;2022-07-23T07:00:44;9.85;;;2.20;;
59408;SDS011;45213;32.654;-115.458;2022-07-23T07:03:11;7.25;;;1.98;;
59408;SDS011;45213;32.654;-115.458;2022-07-23T07:05:38;6.93;;;2.25;;
59408;SDS011;45213;32.654;-115.458;2022-07-23T07:08:07;5.35;;;1.95;;
59408;SDS011;45213;32.654;-115.458;2022-07-23T07:10:34;5.38;;;2.10;;
59408;SDS011;45213;32.654;-115.458;2022-07-23T07:13:01;7.28;;;2.30;;
59408;SDS011;45213;32.654;-115.458;2022-07-23T07:15:27;12.38;;;2.30;;
59408;SDS011;45213;32.654;-115.458;2022-07-23T07:17:54;7.75;;;2.10;;
59408;SDS011;45213;32.654;-115.458;2022-07-23T07:20:21;8.75;;;2.08;;
59408;SDS011;45213;32.654;-115.458;2022-07-23T07:22:50;3.75;;;2.17;;
59408;SDS011;45213;32.654;-115.458;2022-07-23T07:25:16;5.82;;;2.20;;
59408;SDS011;45213;32.654;-115.458;2022-07-23T07:27:43;19.40;;;3.38;;
59408;SDS011;45213;32.654;-115.458;2022-07-23T07:30:10;4.75;;;2.47;;
59408;SDS011;45213;32.654;-115.458;2022-07-23T07:32:38;5.88;;;2.40;;
59408;SDS011;45213;32.654;-115.458;2022-07-23T07:35:05;9.65;;;2.42;;
59408;SDS011;45213;32.654;-115.458;2022-07-23T07:37:33;8.32;;;2.47;;
59408;SDS011;45213;32.654;-115.458;2022-07-23T07:40:02;5.30;;;2.28;;
59408;SDS011;45213;32.654;-115.458;2022-07-23T07:42:29;4.60;;;2.22;;
59408;SDS011;45213;32.654;-115.458;2022-07-23T07:44:56;4.10;;;2.45;;
59408;SDS011;45213;32.654;-115.458;2022-07-23T07:47:22;5.65;;;2.20;;
59408;SDS011;45213;32.654;-115.458;2022-07-23T07:50:07;8.52;;;2.10;;
59408;SDS011;45213;32.654;-115.458;2022-07-23T07:52:35;5.82;;;2.22;;
59408;SDS011;45213;32.654;-115.458;2022-07-23T07:55:06;5.72;;;2.03;;
59408;SDS011;45213;32.654;-115.458;2022-07-23T07:57:35;7.60;;;2.42;;
59408;SDS011;45213;32.654;-115.458;2022-07-23T08:00:03;5.13;;;2.00;;
59408;SDS011;45213;32.654;-115.458;2022-07-23T08:02:44;5.00;;;1.73;;
59408;SDS011;45213;32.654;-115.458;2022-07-23T08:05:18;7.53;;;2.25;;
59408;SDS011;45213;32.654;-115.458;2022-07-23T08:07:46;6.18;;;2.20;;
59408;SDS011;45213;32.654;-115.458;2022-07-23T08:10:13;6.15;;;2.22;;
59408;SDS011;45213;32.654;-115.458;2022-07-23T08:12:46;6.85;;;2.00;;
59408;SDS011;45213;32.654;-115.458;2022-07-23T08:15:19;7.15;;;2.38;;
59408;SDS011;45213;32.654;-115.458;2022-07-23T08:17:47;6.70;;;2.33;;
59408;SDS011;45213;32.654;-115.458;2022-07-23T08:20:15;6.50;;;2.40;;
59408;SDS011;45213;32.654;-115.458;2022-07-23T08:25:09;9.70;;;2.60;;
59408;SDS011;45213;32.654;-115.458;2022-07-23T08:27:36;5.15;;;2.30;;
59408;SDS011;45213;32.654;-115.458;2022-07-23T08:30:03;6.85;;;2.42;;
59408;SDS011;45213;32.654;-115.458;2022-07-23T08:32:30;6.55;;;2.13;;
59408;SDS011;45213;32.654;-115.458;2022-07-23T08:34:56;11.65;;;3.33;;
59408;SDS011;45213;32.654;-115.458;2022-07-23T08:37:23;5.47;;;2.35;;
59408;SDS011;45213;32.654;-115.458;2022-07-23T08:39:49;6.07;;;2.45;;
59408;SDS011;45213;32.654;-115.458;2022-07-23T08:42:16;8.32;;;2.42;;
59408;SDS011;45213;32.654;-115.458;2022-07-23T08:44:45;6.30;;;2.20;;
59408;SDS011;45213;32.654;-115.458;2022-07-23T08:47:12;4.90;;;2.28;;
59408;SDS011;45213;32.654;-115.458;2022-07-23T08:49:41;6.68;;;2.47;;
59408;SDS011;45213;32.654;-115.458;2022-07-23T08:52:17;7.15;;;2.85;;
59408;SDS011;45213;32.654;-115.458;2022-07-23T08:55:00;12.02;;;2.85;;
59408;SDS011;45213;32.654;-115.458;2022-07-23T08:57:29;7.60;;;2.40;;
59408;SDS011;45213;32.654;-115.458;2022-07-23T09:03:02;9.48;;;2.72;;
59408;SDS011;45213;32.654;-115.458;2022-07-23T09:05:33;8.70;;;2.50;;
59408;SDS011;45213;32.654;-115.458;2022-07-23T09:08:13;12.77;;;2.22;;
59408;SDS011;45213;32.654;-115.458;2022-07-23T09:15:59;9.52;;;2.22;;
59408;SDS011;45213;32.654;-115.458;2022-07-23T09:18:48;8.70;;;2.50;;
59408;SDS011;45213;32.654;-115.458;2022-07-23T09:24:07;7.00;;;1.98;;
59408;SDS011;45213;32.654;-115.458;2022-07-23T09:31:35;6.13;;;2.00;;
59408;SDS011;45213;32.654;-115.458;2022-07-23T09:34:17;3.92;;;1.95;;
59408;SDS011;45213;32.654;-115.458;2022-07-23T09:36:46;7.93;;;2.33;;
59408;SDS011;45213;32.654;-115.458;2022-07-23T09:39:14;7.43;;;2.40;;
59408;SDS011;45213;32.654;-115.458;2022-07-23T09:41:52;6.95;;;1.92;;
59408;SDS011;45213;32.654;-115.458;2022-07-23T09:44:24;6.43;;;2.08;;
59408;SDS011;45213;32.654;-115.458;2022-07-23T09:46:57;4.80;;;1.80;;
59408;SDS011;45213;32.654;-115.458;2022-07-23T09:49:26;8.60;;;2.60;;
59408;SDS011;45213;32.654;-115.458;2022-07-23T09:51:55;6.55;;;2.08;;
59408;SDS011;45213;32.654;-115.458;2022-07-23T09:54:34;7.05;;;2.20;;
59408;SDS011;45213;32.654;-115.458;2022-07-23T09:57:03;6.60;;;2.13;;
59408;SDS011;45213;32.654;-115.458;2022-07-23T09:59:34;5.22;;;2.00;;
59408;SDS011;45213;32.654;-115.458;2022-07-23T10:02:02;8.73;;;2.40;;
59408;SDS011;45213;32.654;-115.458;2022-07-23T10:04:39;6.75;;;2.25;;
59408;SDS011;45213;32.654;-115.458;2022-07-23T10:07:34;6.38;;;2.00;;
59408;SDS011;45213;32.654;-115.458;2022-07-23T10:10:22;5.10;;;1.98;;
59408;SDS011;45213;32.654;-115.458;2022-07-23T10:13:10;4.72;;;2.22;;
59408;SDS011;45213;32.654;-115.458;2022-07-23T10:15:46;5.95;;;2.40;;
59408;SDS011;45213;32.654;-115.458;2022-07-23T10:18:13;4.03;;;2.25;;
59408;SDS011;45213;32.654;-115.458;2022-07-23T10:20:39;7.65;;;2.15;;
59408;SDS011;45213;32.654;-115.458;2022-07-23T10:26:12;5.65;;;2.35;;
59408;SDS011;45213;32.654;-115.458;2022-07-23T10:33:53;6.97;;;2.50;;
59408;SDS011;45213;32.654;-115.458;2022-07-23T10:36:51;8.98;;;2.40;;
59408;SDS011;45213;32.654;-115.458;2022-07-23T10:39:24;7.75;;;2.63;;
59408;SDS011;45213;32.654;-115.458;2022-07-23T10:42:07;5.93;;;2.40;;
59408;SDS011;45213;32.654;-115.458;2022-07-23T10:44:39;5.35;;;2.35;;
59408;SDS011;45213;32.654;-115.458;2022-07-23T10:47:09;7.22;;;2.40;;
59408;SDS011;45213;32.654;-115.458;2022-07-23T10:49:49;6.55;;;2.30;;
59408;SDS011;45213;32.654;-115.458;2022-07-23T10:52:17;6.70;;;2.30;;
59408;SDS011;45213;32.654;-115.458;2022-07-23T10:54:52;8.95;;;2.85;;
59408;SDS011;45213;32.654;-115.458;2022-07-23T10:57:48;8.25;;;2.55;;
59408;SDS011;45213;32.654;-115.458;2022-07-23T11:00:22;6.03;;;2.60;;
59408;SDS011;45213;32.654;-115.458;2022-07-23T11:02:51;6.93;;;2.88;;
59408;SDS011;45213;32.654;-115.458;2022-07-23T11:05:21;9.35;;;3.20;;
59408;SDS011;45213;32.654;-115.458;2022-07-23T11:10:35;6.57;;;3.00;;
59408;SDS011;45213;32.654;-115.458;2022-07-23T11:31:56;7.30;;;3.10;;
59408;SDS011;45213;32.654;-115.458;2022-07-23T11:34:39;7.82;;;3.17;;
59408;SDS011;45213;32.654;-115.458;2022-07-23T11:37:08;5.80;;;2.60;;
59408;SDS011;45213;32.654;-115.458;2022-07-23T11:39:36;6.65;;;2.72;;
59408;SDS011;45213;32.654;-115.458;2022-07-23T11:42:05;9.75;;;2.85;;
59408;SDS011;45213;32.654;-115.458;2022-07-23T11:44:34;7.72;;;2.80;;
59408;SDS011;45213;32.654;-115.458;2022-07-23T11:47:09;9.40;;;2.88;;
59408;SDS011;45213;32.654;-115.458;2022-07-23T11:49:51;6.88;;;2.67;;
59408;SDS011;45213;32.654;-115.458;2022-07-23T11:52:22;6.90;;;2.78;;
59408;SDS011;45213;32.654;-115.458;2022-07-23T11:57:19;3.85;;;1.77;;
59408;SDS011;45213;32.654;-115.458;2022-07-23T11:59:51;7.38;;;2.17;;
59408;SDS011;45213;32.654;-115.458;2022-07-23T12:04:48;7.05;;;2.45;;
59408;SDS011;45213;32.654;-115.458;2022-07-23T12:07:29;6.15;;;2.33;;
59408;SDS011;45213;32.654;-115.458;2022-07-23T12:10:22;7.57;;;2.17;;
59408;SDS011;45213;32.654;-115.458;2022-07-23T12:12:55;5.10;;;2.00;;
59408;SDS011;45213;32.654;-115.458;2022-07-23T12:15:31;5.60;;;1.85;;
59408;SDS011;45213;32.654;-115.458;2022-07-23T12:18:05;6.10;;;1.80;;
59408;SDS011;45213;32.654;-115.458;2022-07-23T12:20:35;6.93;;;2.30;;
59408;SDS011;45213;32.654;-115.458;2022-07-23T12:23:10;6.22;;;2.55;;
59408;SDS011;45213;32.654;-115.458;2022-07-23T12:25:38;5.93;;;2.50;;
59408;SDS011;45213;32.654;-115.458;2022-07-23T12:30:48;6.07;;;2.65;;
59408;SDS011;45213;32.654;-115.458;2022-07-23T12:33:23;10.65;;;3.10;;
59408;SDS011;45213;32.654;-115.458;2022-07-23T12:35:53;5.10;;;2.90;;
59408;SDS011;45213;32.654;-115.458;2022-07-23T12:38:27;8.60;;;3.78;;
59408;SDS011;45213;32.654;-115.458;2022-07-23T12:41:02;9.85;;;3.70;;
59408;SDS011;45213;32.654;-115.458;2022-07-23T12:43:31;9.25;;;3.83;;
59408;SDS011;45213;32.654;-115.458;2022-07-23T12:48:33;8.02;;;3.25;;
59408;SDS011;45213;32.654;-115.458;2022-07-23T12:51:05;5.90;;;3.25;;
59408;SDS011;45213;32.654;-115.458;2022-07-23T12:53:40;11.82;;;3.72;;
59408;SDS011;45213;32.654;-115.458;2022-07-23T12:56:10;13.48;;;4.65;;
59408;SDS011;45213;32.654;-115.458;2022-07-23T12:58:50;14.57;;;4.68;;
59408;SDS011;45213;32.654;-115.458;2022-07-23T13:01:23;12.18;;;4.63;;
59408;SDS011;45213;32.654;-115.458;2022-07-23T13:03:58;9.90;;;3.13;;
59408;SDS011;45213;32.654;-115.458;2022-07-23T13:06:33;6.13;;;2.38;;
59408;SDS011;45213;32.654;-115.458;2022-07-23T13:09:00;7.47;;;2.65;;
59408;SDS011;45213;32.654;-115.458;2022-07-23T13:11:28;6.07;;;2.38;;
59408;SDS011;45213;32.654;-115.458;2022-07-23T13:13:55;5.30;;;2.22;;
59408;SDS011;45213;32.654;-115.458;2022-07-23T13:16:22;5.70;;;1.77;;
59408;SDS011;45213;32.654;-115.458;2022-07-23T13:18:48;6.70;;;2.25;;
59408;SDS011;45213;32.654;-115.458;2022-07-23T13:21:15;8.15;;;2.00;;
59408;SDS011;45213;32.654;-115.458;2022-07-23T13:23:42;6.72;;;2.67;;
59408;SDS011;45213;32.654;-115.458;2022-07-23T13:26:08;7.55;;;2.10;;
59408;SDS011;45213;32.654;-115.458;2022-07-23T13:28:38;7.47;;;2.20;;
59408;SDS011;45213;32.654;-115.458;2022-07-23T13:31:07;7.95;;;2.28;;
59408;SDS011;45213;32.654;-115.458;2022-07-23T13:33:34;8.93;;;2.85;;
59408;SDS011;45213;32.654;-115.458;2022-07-23T13:36:01;8.65;;;2.58;;
59408;SDS011;45213;32.654;-115.458;2022-07-23T13:38:29;4.13;;;2.30;;
59408;SDS011;45213;32.654;-115.458;2022-07-23T13:40:56;10.63;;;2.25;;
59408;SDS011;45213;32.654;-115.458;2022-07-23T13:43:23;8.20;;;2.40;;
59408;SDS011;45213;32.654;-115.458;2022-07-23T13:45:50;7.53;;;2.17;;
59408;SDS011;45213;32.654;-115.458;2022-07-23T13:48:18;8.02;;;2.47;;
59408;SDS011;45213;32.654;-115.458;2022-07-23T13:50:45;7.00;;;2.33;;
59408;SDS011;45213;32.654;-115.458;2022-07-23T13:53:13;9.73;;;2.58;;
59408;SDS011;45213;32.654;-115.458;2022-07-23T13:55:42;11.18;;;2.30;;
59408;SDS011;45213;32.654;-115.458;2022-07-23T13:58:10;10.52;;;2.75;;
59408;SDS011;45213;32.654;-115.458;2022-07-23T14:00:39;6.15;;;2.10;;
59408;SDS011;45213;32.654;-115.458;2022-07-23T14:03:10;5.80;;;2.58;;
59408;SDS011;45213;32.654;-115.458;2022-07-23T14:05:36;7.10;;;2.20;;
59408;SDS011;45213;32.654;-115.458;2022-07-23T14:08:04;5.60;;;2.67;;
59408;SDS011;45213;32.654;-115.458;2022-07-23T14:10:31;8.85;;;2.28;;
59408;SDS011;45213;32.654;-115.458;2022-07-23T14:12:58;8.50;;;2.47;;
59408;SDS011;45213;32.654;-115.458;2022-07-23T14:15:26;7.07;;;2.88;;
59408;SDS011;45213;32.654;-115.458;2022-07-23T14:17:59;6.32;;;2.42;;
59408;SDS011;45213;32.654;-115.458;2022-07-23T14:20:25;10.45;;;2.40;;
59408;SDS011;45213;32.654;-115.458;2022-07-23T14:22:52;9.60;;;2.67;;
59408;SDS011;45213;32.654;-115.458;2022-07-23T14:25:21;7.07;;;2.45;;
59408;SDS011;45213;32.654;-115.458;2022-07-23T14:27:48;12.75;;;2.58;;
59408;SDS011;45213;32.654;-115.458;2022-07-23T14:30:14;7.85;;;2.40;;
59408;SDS011;45213;32.654;-115.458;2022-07-23T14:32:41;7.53;;;2.47;;
59408;SDS011;45213;32.654;-115.458;2022-07-23T14:35:09;8.15;;;2.35;;
59408;SDS011;45213;32.654;-115.458;2022-07-23T14:37:36;7.18;;;2.42;;
59408;SDS011;45213;32.654;-115.458;2022-07-23T14:40:02;7.38;;;2.70;;
59408;SDS011;45213;32.654;-115.458;2022-07-23T14:42:29;5.35;;;2.70;;
59408;SDS011;45213;32.654;-115.458;2022-07-23T14:44:58;6.82;;;2.25;;
59408;SDS011;45213;32.654;-115.458;2022-07-23T14:47:25;9.30;;;2.92;;
59408;SDS011;45213;32.654;-115.458;2022-07-23T14:49:52;8.05;;;2.78;;
59408;SDS011;45213;32.654;-115.458;2022-07-23T14:52:18;6.28;;;1.92;;
59408;SDS011;45213;32.654;-115.458;2022-07-23T14:54:45;7.70;;;2.30;;
59408;SDS011;45213;32.654;-115.458;2022-07-23T14:57:13;12.27;;;2.75;;
59408;SDS011;45213;32.654;-115.458;2022-07-23T14:59:39;5.78;;;1.92;;
59408;SDS011;45213;32.654;-115.458;2022-07-23T15:02:07;5.70;;;1.90;;
59408;SDS011;45213;32.654;-115.458;2022-07-23T15:04:34;5.93;;;1.98;;
59408;SDS011;45213;32.654;-115.458;2022-07-23T15:07:01;5.00;;;2.00;;
59408;SDS011;45213;32.654;-115.458;2022-07-23T15:09:28;6.07;;;2.30;;
59408;SDS011;45213;32.654;-115.458;2022-07-23T15:11:57;6.65;;;1.73;;
59408;SDS011;45213;32.654;-115.458;2022-07-23T15:14:24;6.75;;;2.53;;
59408;SDS011;45213;32.654;-115.458;2022-07-23T15:16:51;4.00;;;1.73;;
59408;SDS011;45213;32.654;-115.458;2022-07-23T15:19:18;5.22;;;1.83;;
59408;SDS011;45213;32.654;-115.458;2022-07-23T15:21:44;7.72;;;2.30;;
59408;SDS011;45213;32.654;-115.458;2022-07-23T15:24:11;6.32;;;2.42;;
59408;SDS011;45213;32.654;-115.458;2022-07-23T15:26:38;10.57;;;2.35;;
59408;SDS011;45213;32.654;-115.458;2022-07-23T15:31:35;7.68;;;1.95;;